Flight Track Log - Related Links

Times and Time Zones

All times are in EDT time to prevent confusion due to time zone crossing. See the KAP927 flight status page for this flight to view local times or setup timezone preferences in your user account.

Time Position Orientation Groundspeed Altitude Reporting Facility
EDT Latitude Longitude Course Direction KTS MPH feet Rate Location/Type
Thu 05:09:01 PM 44.4669 -75.2386 150° Southeast 154 177 4,100  Level Boston Center
Thu 05:10:01 PM 44.4342 -75.2139 152° Southeast 149 171 4,500 403 Climbing Boston Center
Thu 05:11:00 PM 44.3994 -75.1831 148° Southeast 149 171 4,900 353 Climbing Boston Center
Thu 05:12:00 PM 44.3689 -75.1614 153° Southeast 143 165 5,200 300 Climbing Boston Center
Thu 05:13:00 PM 44.3342 -75.1278 145° Southeast 138 159 5,500 350 Climbing Boston Center
Thu 05:14:00 PM 44.4837 -75.2889 150° Southeast  Level Estimated
Thu 05:14:00 PM 44.3014 -75.1031 152° Southeast 138 159 5,900  Level Boston Center
Thu 05:15:00 PM 44.2689 -75.0697 144° Southeast 138 159 6,200 347 Climbing Boston Center
Thu 05:16:01 PM 44.2361 -75.0450 152° Southeast 138 159 6,600 400 Climbing Boston Center
Thu 05:17:00 PM 44.2033 -75.0147 146° Southeast 138 159 7,000 252 Climbing Boston Center
Thu 05:18:00 PM 44.1706 -74.9872 149° Southeast 138 159 7,100  Climbing Boston Center
Thu 05:19:01 PM 44.1358 -74.9569 148° Southeast 143 165 7,000 -50 Descending Boston Center
Thu 05:20:00 PM 44.1011 -74.9264 148° Southeast 143 165 7,000 50 Level Boston Center
Thu 05:21:00 PM 44.0664 -74.8961 148° Southeast 143 165 7,100 50 Climbing Boston Center
Thu 05:22:01 PM 44.0314 -74.8717 153° Southeast 143 165 7,100  Level Boston Center
Thu 05:23:00 PM 43.9967 -74.8383 145° Southeast 138 159 7,100  Level Boston Center
Thu 05:24:00 PM 43.9619 -74.8081 148° Southeast 138 159 7,100  Level Boston Center
Thu 05:25:00 PM 43.9269 -74.7781 148° Southeast 138 159 7,100  Level Boston Center
Thu 05:26:01 PM 43.8942 -74.7536 152° Southeast 138 159 7,100 -50 Level Boston Center
Thu 05:27:00 PM 43.8594 -74.7206 146° Southeast 138 159 7,000  Descending Boston Center
Thu 05:28:01 PM 43.8225 -74.6875 147° Southeast 143 165 7,100 50 Climbing Boston Center
Thu 05:29:00 PM 43.7836 -74.6572 151° Southeast 153 176 7,100 -50 Level Boston Center
Thu 05:30:00 PM 43.7425 -74.6242 150° Southeast 158 182 7,000 -50 Descending Boston Center
Thu 05:31:00 PM 43.7078 -74.5942 148° Southeast 158 182 7,000  Level Boston Center
Thu 05:32:00 PM 43.6708 -74.5614 147° Southeast 158 182 7,000 50 Level Boston Center
Thu 05:33:00 PM 43.6339 -74.5314 150° Southeast 158 182 7,100 50 Climbing Boston Center
Thu 05:34:00 PM 43.5969 -74.4986 147° Southeast 158 182 7,100  Level Boston Center
Thu 05:35:01 PM 43.5600 -74.4686 150° Southeast 158 182 7,100 -50 Level Boston Center
Thu 05:36:00 PM 43.5228 -74.4417 152° Southeast 153 176 7,000 -46 Descending Boston Center
Thu 05:37:12 PM 43.4881 -74.4119 148° Southeast 153 176 7,000 45 Level Boston Center
Thu 05:38:13 PM 43.4469 -74.3789 150° Southeast 153 176 7,100 51 Climbing Boston Center
Thu 05:39:10 PM 43.4097 -74.3492 150° Southeast 151 174 7,100  Level Boston Center
Thu 05:40:12 PM 43.3708 -74.3139 147° Southeast 153 176 7,100  Level Boston Center
Thu 05:41:13 PM 43.3358 -74.2869 151° Southeast 153 176 7,100  Level Boston Center
Thu 05:42:12 PM 43.2989 -74.2572 150° Southeast 153 176 7,100 -50 Level Boston Center
Thu 05:43:12 PM 43.2597 -74.2247 149° Southeast 153 176 7,000 -149 Descending Boston Center
Thu 05:44:13 PM 43.2247 -74.1897 144° Southeast 153 176 6,800 -350 Descending Boston Center
Thu 05:45:12 PM 43.1881 -74.1458 139° Southeast 169 194 6,300 -489 Descending Boston Center
Thu 05:46:28 PM 43.1472 -74.0878 134° Southeast 176 203 5,700 -450 Descending Boston Center
Thu 05:47:12 PM 43.1225 -74.0586 139° Southeast 179 206 5,400 -466 Descending Boston Center
Thu 05:48:24 PM 43.0775 -74.0033 138° Southeast 173 199 4,800 -455 Descending Boston Center
Thu 05:49:24 PM 43.0406 -73.9600 139° Southeast 174 200 4,400 -347 Descending Boston Center
Thu 05:50:25 PM 43.0056 -73.9136 136° Southeast 167 192 4,100 -226 Descending Boston Center
Thu 05:51:37 PM 42.9667 -73.8644 137° Southeast 169 194 3,900 -318 Descending Boston Center
Thu 05:52:37 PM 42.9272 -73.8436 159° South 164 189 3,400 -545 Descending Boston Center
Thu 05:53:27 PM 42.8839 -73.8286 166° South 178 205 2,900 -703 Descending Boston Center
Thu 05:54:28 PM 42.8339 -73.8161 170° South 174 200 2,100 -942 Descending Boston Center
Thu 05:55:28 PM 42.7903 -73.8094 174° South 148 170 1,000 -1,100 Descending Boston Center
Thu 05:57:00 PM 42.7491 -73.8020 160° South  Level Estimated
Thu 06:04:00 PM 42.7491 -73.8020 160° South  Level Estimated
Thu 06:05:00 PM 42.7491 -73.8020 160° South  Level Estimated
Thu 06:06:00 PM 42.7491 -73.8020 160° South  Level Estimated

Login

Don't have an account? Register now (free) for customized features, flight alerts, and more!